Ranchita, CA

1:20 PM PDT on October 01, 2014 (GMT -0700)
Gillespie | Change Station
CLOSE
Current Station
Airport
Location: Santee,
Elevation: 387 ft
Nearby Weather Stations
Active Advisory: Heat Advisory

Elev 387 ft 32.83 °N, 116.97 °W | Updated -883 second ago

Clear
Clear
90 °F
Feels Like 88 °F
N
10
Wind Variable Wind from WSW
Gusts 16 mph

Today
High -- | Low -- °F
--% Chance of Precip.
Yesterday
High -- | Low -- °F
Precip. -- in
6:40 AM 6:30 PM
Waxing Crescent, 50% visible
Pressure 29.81 in
Visibility 10.0 miles
Clouds Clear
Heat Index 88 °F
Dew Point 55 °F
Humidity 31%
Rainfall 0.00 in
Snow Depth 0 in , 0 in , 1 in
UV 8 out of 12
Pollen 5.40 out of 12
Air Quality Not available.
Flu Activity Not available.
METAR KSEE 302035Z AUTO 24009G14KT 10SM CLR 32/13 A2981 RMK AO2

More Conditions Fewer Conditions

Pressure 29.81 in
Visibility 10.0 miles
Clouds Clear
Heat Index 88 °F
Dew Point 55 °F
Humidity 31%
Rainfall 0.00 in
Snow Depth 0 in , 0 in , 1 in
UV 8 out of 12
Pollen 5.40 out of 12
Air Quality Not available.
Flu Activity Not available.
METAR KSEE 302035Z AUTO 24009G14KT 10SM CLR 32/13 A2981 RMK AO2

More Conditions Fewer Conditions

10-Day Weather Forecast

Almanac

Astronomy

Oct. 01, 2014 Rise Set
Actual Time 6:40 AM PDT 6:30 PM PDT
Civil Twilight 6:15 AM PDT 6:55 PM PDT
Nautical Twilight 5:46 AM PDT 7:23 PM PDT
Astronomical Twilight 5:18 AM PDT 7:52 PM PDT
Moon 1:32 PM PDT No Moon Set
Length of Visible Light 12h 39m
Length of Day
11h 50m
Tomorrow will be 2m 1s shorter.
Waxing Crescent, 50% of the Moon is Illuminated
Today
Waxing Crescent
Oct 8
Full
Oct 15
Last Quarter
Oct 23
New
Oct 30
First Quarter

Today's Extremes

State Highs State Lows

Community

WunderPhotos

Upload Photos

1,758,030 photos uploaded!

WunderBlogs® & News

By Dr. Jeff Masters
Director of Meteorology, Weather Underground
By Kari Strenfel
Meteorologist, Weather Underground
By Christopher C. Burt
Weather Historian, Weather Underground
October 1, 2014
October 1, 2014
October 1, 2014

Nearby

Snow Depth

Station Depth Elevation
Blue Lakes 0 in 8000 ft
Burnside Lake 0 in 8139 ft
Rubicon #2 1 in 7500 ft
Summit Meadow 0 in 9122 ft
Leavitt Meadows 0 in 7200 ft

Earthquake Activity

City Distance Mag. Time & Date
Avalon, California 103 miles 2.6 1:28 PM PDT
2014-09-30
Minimum magnitude displayed is 2.5.

Coastal Water Temperatures

Place Temperature
No Stations Reporting

Nearby Weather Stations